createdAt,value
2023-05-04T00:00:13.953Z,101462.00
2023-05-04T00:03:02.715Z,101451.69
2023-05-04T00:05:31.724Z,101453.75
2023-05-04T00:08:02.007Z,101446.84
2023-05-04T00:10:30.923Z,101451.28
2023-05-04T00:12:59.623Z,101450.69
2023-05-04T00:15:30.356Z,101454.19
2023-05-04T00:17:59.064Z,101451.56
2023-05-04T00:20:28.030Z,101449.84
2023-05-04T00:22:56.620Z,101455.38
2023-05-04T00:25:27.211Z,101460.69
2023-05-04T00:27:55.858Z,101452.00
2023-05-04T00:30:24.868Z,101452.91
2023-05-04T00:32:54.419Z,101449.59
2023-05-04T00:35:23.354Z,101444.44
2023-05-04T00:37:51.978Z,101454.91
2023-05-04T00:40:21.456Z,101451.31
2023-05-04T00:42:51.517Z,101452.28
2023-05-04T00:45:20.879Z,101455.88
2023-05-04T00:47:51.038Z,101455.09
2023-05-04T00:50:20.582Z,101455.97
2023-05-04T00:52:51.668Z,101453.41
2023-05-04T00:55:21.781Z,101450.00
2023-05-04T00:57:53.244Z,101452.72
2023-05-04T01:00:22.486Z,101451.13
2023-05-04T01:02:52.202Z,101444.22
2023-05-04T01:05:21.395Z,101452.97
2023-05-04T01:08:03.171Z,101460.03
2023-05-04T01:10:42.951Z,101448.75
2023-05-04T01:13:17.190Z,101448.03
2023-05-04T01:15:47.494Z,101446.47
2023-05-04T01:18:17.918Z,101453.41
2023-05-04T01:20:46.970Z,101452.50
2023-05-04T01:23:17.278Z,101446.44
2023-05-04T01:26:00.220Z,101440.56
2023-05-04T01:28:40.486Z,101442.38
2023-05-04T01:31:17.159Z,101448.38
2023-05-04T01:33:46.777Z,101445.03
2023-05-04T01:36:16.537Z,101439.00
2023-05-04T01:38:49.062Z,101446.84
2023-05-04T01:41:18.064Z,101446.06
2023-05-04T01:43:46.716Z,101441.78
2023-05-04T01:46:15.760Z,101441.09
2023-05-04T01:48:44.493Z,101438.38
2023-05-04T01:51:13.481Z,101433.34
2023-05-04T01:53:42.303Z,101435.25
2023-05-04T01:56:13.117Z,101437.94
2023-05-04T01:58:41.959Z,101440.59
2023-05-04T02:01:11.053Z,101435.34
2023-05-04T02:03:39.972Z,101435.38
2023-05-04T02:06:09.529Z,101435.59
2023-05-04T02:08:38.168Z,101432.09
2023-05-04T02:11:07.263Z,101431.31
2023-05-04T02:13:37.622Z,101441.03
2023-05-04T02:16:07.835Z,101435.84
2023-05-04T02:18:36.574Z,101439.38
2023-05-04T02:21:05.713Z,101437.66
2023-05-04T02:23:34.355Z,101435.97
2023-05-04T02:26:03.258Z,101437.91
2023-05-04T02:28:32.049Z,101433.81
2023-05-04T02:31:02.363Z,101439.03
2023-05-04T02:33:31.107Z,101443.41
2023-05-04T02:35:59.999Z,101440.84
2023-05-04T02:38:28.684Z,101450.44
2023-05-04T02:40:58.444Z,101445.19
2023-05-04T02:43:27.232Z,101449.66
2023-05-04T02:45:56.178Z,101441.88
2023-05-04T02:48:26.541Z,101443.72
2023-05-04T02:50:56.509Z,101441.19
2023-05-04T02:53:25.164Z,101444.72
2023-05-04T02:55:54.203Z,101444.63
2023-05-04T02:58:22.832Z,101437.81
2023-05-04T03:00:55.947Z,101437.09
2023-05-04T03:03:26.010Z,101442.22
2023-05-04T03:05:54.968Z,101446.72
2023-05-04T03:08:23.717Z,101446.63
2023-05-04T03:10:52.722Z,101448.47
2023-05-04T03:13:21.378Z,101446.88
2023-05-04T03:15:50.881Z,101448.59
2023-05-04T03:18:19.552Z,101445.06
2023-05-04T03:20:52.019Z,101447.56
2023-05-04T03:23:22.965Z,101449.38
2023-05-04T03:25:52.160Z,101443.38
2023-05-04T03:28:20.879Z,101446.00
2023-05-04T03:30:49.860Z,101444.22
2023-05-04T03:33:20.733Z,101450.28
2023-05-04T03:35:51.023Z,101445.19
2023-05-04T03:38:19.734Z,101450.41
2023-05-04T03:40:48.627Z,101446.09
2023-05-04T03:43:17.314Z,101441.63
2023-05-04T03:45:46.379Z,101450.09
2023-05-04T03:48:15.079Z,101443.88
2023-05-04T03:50:44.102Z,101443.00
2023-05-04T03:53:14.242Z,101450.84
2023-05-04T03:55:44.143Z,101444.75
2023-05-04T03:58:13.084Z,101450.84
2023-05-04T04:00:42.312Z,101457.63
2023-05-04T04:03:16.292Z,101460.13
2023-05-04T04:05:45.656Z,101456.56
2023-05-04T04:08:15.813Z,101456.44
2023-05-04T04:10:44.790Z,101455.41
2023-05-04T04:13:13.648Z,101460.38
2023-05-04T04:15:44.909Z,101456.84
2023-05-04T04:18:13.928Z,101460.25
2023-05-04T04:20:43.022Z,101465.44
2023-05-04T04:23:11.724Z,101466.28
2023-05-04T04:25:44.048Z,101468.75
2023-05-04T04:28:13.564Z,101475.50
2023-05-04T04:30:42.791Z,101471.72
2023-05-04T04:33:12.051Z,101468.88
2023-05-04T04:35:41.672Z,101477.31
2023-05-04T04:38:10.375Z,101471.94
2023-05-04T04:40:39.260Z,101473.47
2023-05-04T04:43:09.331Z,101469.78
2023-05-04T04:45:39.308Z,101470.44
2023-05-04T04:48:08.377Z,101471.00
2023-05-04T04:50:40.351Z,101475.06
2023-05-04T04:53:09.069Z,101472.16
2023-05-04T04:55:38.032Z,101463.94
2023-05-04T04:58:08.857Z,101460.97
2023-05-04T05:00:38.206Z,101466.63
2023-05-04T05:03:06.927Z,101468.75
2023-05-04T05:05:35.922Z,101461.97
2023-05-04T05:08:04.773Z,101472.94
2023-05-04T05:10:33.705Z,101473.25
2023-05-04T05:13:03.086Z,101465.59
2023-05-04T05:15:33.419Z,101466.78
2023-05-04T05:18:02.256Z,101470.41
2023-05-04T05:20:31.711Z,101470.44
2023-05-04T05:23:00.473Z,101468.88
2023-05-04T05:25:29.520Z,101473.25
2023-05-04T05:27:58.169Z,101471.28
2023-05-04T05:30:28.278Z,101470.34
2023-05-04T05:32:58.518Z,101475.28
2023-05-04T05:35:27.575Z,101475.03
2023-05-04T05:37:56.516Z,101475.59
2023-05-04T05:40:25.458Z,101473.16
2023-05-04T05:42:54.189Z,101477.25
2023-05-04T05:45:23.187Z,101476.56
2023-05-04T05:47:52.265Z,101479.69
2023-05-04T05:50:24.313Z,101473.06
2023-05-04T05:52:53.081Z,101472.91
2023-05-04T05:55:21.929Z,101473.78
2023-05-04T05:57:50.604Z,101470.84
2023-05-04T06:00:20.565Z,101468.81
2023-05-04T06:02:49.307Z,101469.19
2023-05-04T06:05:18.326Z,101464.34
2023-05-04T06:07:48.320Z,101460.56
2023-05-04T06:10:17.677Z,101454.72
2023-05-04T06:12:46.365Z,101451.50
2023-05-04T06:15:15.424Z,101458.25
2023-05-04T06:17:44.245Z,101464.81
2023-05-04T06:20:13.737Z,101463.09
2023-05-04T06:22:42.518Z,101462.75
2023-05-04T06:25:13.422Z,101462.56
2023-05-04T06:27:42.173Z,101466.09
2023-05-04T06:30:13.613Z,101468.56
2023-05-04T06:32:42.559Z,101474.00
2023-05-04T06:35:11.764Z,101465.63
2023-05-04T06:37:40.536Z,101470.59
2023-05-04T06:40:12.611Z,101475.78
2023-05-04T06:42:41.635Z,101477.56
2023-05-04T06:45:11.224Z,101470.59
2023-05-04T06:47:39.903Z,101474.22
2023-05-04T06:50:10.590Z,101467.00
2023-05-04T06:52:41.333Z,101467.47
2023-05-04T06:55:12.128Z,101465.81
2023-05-04T06:57:42.805Z,101470.00
2023-05-04T07:00:13.674Z,101459.41
2023-05-04T07:02:42.386Z,101468.25
2023-05-04T07:05:11.588Z,101475.13
2023-05-04T07:07:40.284Z,101478.16
2023-05-04T07:10:10.594Z,101467.59
2023-05-04T07:12:40.609Z,101464.41
2023-05-04T07:15:11.201Z,101474.22
2023-05-04T07:17:40.887Z,101465.41
2023-05-04T07:20:11.335Z,101470.69
2023-05-04T07:22:39.993Z,101463.47
2023-05-04T07:25:09.944Z,101475.72
2023-05-04T07:27:43.773Z,101467.25
2023-05-04T07:30:13.528Z,101470.00
2023-05-04T07:32:42.215Z,101473.97
2023-05-04T07:35:11.623Z,101468.66
2023-05-04T07:37:40.447Z,101468.97
2023-05-04T07:40:11.777Z,101469.34
2023-05-04T07:42:42.255Z,101462.66
2023-05-04T07:45:11.999Z,101470.38
2023-05-04T07:47:40.876Z,101459.66
2023-05-04T07:50:10.938Z,101456.78
2023-05-04T07:52:39.646Z,101461.63
2023-05-04T07:55:10.160Z,101449.94
2023-05-04T07:57:38.829Z,101460.47
2023-05-04T08:00:11.019Z,101453.59
2023-05-04T08:02:42.441Z,101461.34
2023-05-04T08:05:11.903Z,101455.63
2023-05-04T08:07:40.682Z,101455.38
2023-05-04T08:10:10.908Z,101455.94
2023-05-04T08:12:41.557Z,101454.16
2023-05-04T08:15:13.894Z,101458.19
2023-05-04T08:17:42.605Z,101452.91
2023-05-04T08:20:13.130Z,101448.19
2023-05-04T08:22:41.887Z,101450.66
2023-05-04T08:25:11.452Z,101449.13
2023-05-04T08:27:40.699Z,101454.81
2023-05-04T08:30:12.365Z,101456.66
2023-05-04T08:32:41.137Z,101465.09
2023-05-04T08:35:10.686Z,101456.50
2023-05-04T08:37:39.429Z,101458.72
2023-05-04T08:40:10.374Z,101457.00
2023-05-04T08:42:40.430Z,101461.47
2023-05-04T08:45:12.154Z,101457.34
2023-05-04T08:47:43.308Z,101459.84
2023-05-04T08:50:13.344Z,101460.84
2023-05-04T08:52:47.677Z,101459.03
2023-05-04T08:55:18.229Z,101457.34
2023-05-04T08:57:47.622Z,101469.81
2023-05-04T09:00:20.665Z,101452.53
2023-05-04T09:02:51.850Z,101454.53
2023-05-04T09:05:21.333Z,101460.97
2023-05-04T09:07:52.545Z,101461.91
2023-05-04T09:10:21.941Z,101456.06
2023-05-04T09:12:50.856Z,101457.00
2023-05-04T09:15:25.214Z,101448.78
2023-05-04T09:17:59.185Z,101448.13
2023-05-04T09:20:28.307Z,101449.56
2023-05-04T09:23:07.023Z,101448.59
2023-05-04T09:25:47.398Z,101446.44
2023-05-04T09:28:16.649Z,101439.47
2023-05-04T09:30:48.387Z,101443.94
2023-05-04T09:33:17.609Z,101440.88
2023-05-04T09:35:46.509Z,101438.66
2023-05-04T09:38:27.446Z,101434.59
2023-05-04T09:40:57.140Z,101436.56
2023-05-04T09:43:25.844Z,101435.88
2023-05-04T09:45:56.373Z,101435.19
2023-05-04T09:48:29.037Z,101436.72
2023-05-04T09:51:00.315Z,101431.13
2023-05-04T09:53:31.630Z,101434.59
2023-05-04T09:56:11.325Z,101428.53
2023-05-04T09:58:40.661Z,101426.22
2023-05-04T10:01:12.066Z,101425.66
2023-05-04T10:03:42.453Z,101418.75
2023-05-04T10:06:13.101Z,101428.22
2023-05-04T10:08:42.172Z,101417.34
2023-05-04T10:11:11.308Z,101415.25
2023-05-04T10:13:40.023Z,101415.13
2023-05-04T10:16:27.207Z,101411.00
2023-05-04T10:19:36.991Z,101408.22
2023-05-04T10:22:30.183Z,101406.72
2023-05-04T10:25:36.645Z,101402.19
2023-05-04T10:28:21.839Z,101397.03
2023-05-04T10:30:58.025Z,101401.31
2023-05-04T10:33:39.258Z,101394.16
2023-05-04T10:36:09.032Z,101396.44
2023-05-04T10:38:41.529Z,101395.69
2023-05-04T10:41:17.645Z,101393.09
2023-05-04T10:43:49.293Z,101394.94
2023-05-04T10:46:22.758Z,101389.72
2023-05-04T10:48:53.368Z,101382.78
2023-05-04T10:51:26.567Z,101386.13
2023-05-04T10:54:01.474Z,101378.88
2023-05-04T10:56:30.770Z,101380.44
2023-05-04T10:59:10.341Z,101374.03
2023-05-04T11:01:44.731Z,101379.44
2023-05-04T11:04:22.792Z,101374.41
2023-05-04T11:06:59.405Z,101376.34
2023-05-04T11:09:29.804Z,101368.59
2023-05-04T11:11:58.502Z,101359.69
2023-05-04T11:14:29.220Z,101364.00
2023-05-04T11:17:23.903Z,101362.94
2023-05-04T11:19:57.472Z,101356.31
2023-05-04T11:22:26.270Z,101355.78
2023-05-04T11:24:56.257Z,101348.63
2023-05-04T11:27:27.680Z,101344.28
2023-05-04T11:30:01.878Z,101337.25
2023-05-04T11:32:38.040Z,101334.25
2023-05-04T11:35:11.549Z,101336.22
2023-05-04T11:37:41.920Z,101332.22
2023-05-04T11:40:14.427Z,101338.00
2023-05-04T11:42:44.031Z,101333.81
2023-05-04T11:45:18.280Z,101318.00
2023-05-04T11:47:48.879Z,101323.09
2023-05-04T11:50:21.502Z,101317.34
2023-05-04T11:52:50.846Z,101313.41
2023-05-04T11:55:38.483Z,101310.94
2023-05-04T11:58:10.464Z,101324.41
2023-05-04T12:00:41.853Z,101317.81
2023-05-04T12:03:13.695Z,101319.88
2023-05-04T12:05:52.723Z,101309.84
2023-05-04T12:08:27.366Z,101312.81
2023-05-04T12:11:14.818Z,101308.38
2023-05-04T12:13:46.504Z,101311.50
2023-05-04T12:16:18.210Z,101303.22
2023-05-04T12:18:48.424Z,101298.28
2023-05-04T12:21:21.484Z,101294.47
2023-05-04T12:23:50.779Z,101294.00
2023-05-04T12:26:19.948Z,101293.97
2023-05-04T12:28:48.960Z,101282.75
2023-05-04T12:31:18.243Z,101281.03
2023-05-04T12:33:46.849Z,101273.47
2023-05-04T12:36:15.869Z,101277.34
2023-05-04T12:38:46.528Z,101278.22
2023-05-04T12:41:15.618Z,101282.41
2023-05-04T12:43:44.244Z,101281.13
2023-05-04T12:46:13.350Z,101273.50
2023-05-04T12:48:42.003Z,101272.22
2023-05-04T12:51:10.991Z,101265.28
2023-05-04T12:53:41.145Z,101261.56
2023-05-04T12:56:11.542Z,101266.44
2023-05-04T12:58:40.261Z,101269.16
2023-05-04T13:01:09.239Z,101265.28
2023-05-04T13:03:37.988Z,101264.22
2023-05-04T13:06:07.723Z,101263.72
2023-05-04T13:08:36.398Z,101260.97
2023-05-04T13:11:05.359Z,101262.97
2023-05-04T13:13:35.904Z,101255.31
2023-05-04T13:16:06.008Z,101251.91
2023-05-04T13:18:34.736Z,101254.38
2023-05-04T13:21:03.665Z,101246.44
2023-05-04T13:23:32.320Z,101244.47
2023-05-04T13:26:01.392Z,101247.25
2023-05-04T13:28:29.997Z,101236.88
2023-05-04T13:31:00.552Z,101235.47
2023-05-04T13:33:30.822Z,101230.44
2023-05-04T13:36:02.177Z,101232.19
2023-05-04T13:38:30.941Z,101230.97
2023-05-04T13:41:00.050Z,101220.41
2023-05-04T13:43:29.620Z,101215.28
2023-05-04T13:46:04.512Z,101206.00
2023-05-04T13:48:34.098Z,101206.44
2023-05-04T13:51:04.964Z,101202.16
2023-05-04T13:53:33.697Z,101206.22
2023-05-04T13:56:02.855Z,101197.50
2023-05-04T13:58:31.540Z,101199.63
2023-05-04T14:01:01.984Z,101194.00
2023-05-04T14:03:33.657Z,101193.84
2023-05-04T14:06:02.697Z,101185.28
2023-05-04T14:08:31.363Z,101179.22
2023-05-04T14:11:00.376Z,101184.28
2023-05-04T14:13:29.096Z,101176.00
2023-05-04T14:15:58.637Z,101177.09
2023-05-04T14:18:32.072Z,101178.94
2023-05-04T14:21:01.225Z,101167.13
2023-05-04T14:23:29.948Z,101170.06
2023-05-04T14:25:58.854Z,101175.97
2023-05-04T14:28:27.609Z,101174.88
2023-05-04T14:30:56.560Z,101175.56
2023-05-04T14:33:25.504Z,101164.63
2023-05-04T14:35:56.060Z,101161.53
2023-05-04T14:38:24.824Z,101168.00
2023-05-04T14:40:55.376Z,101163.53
2023-05-04T14:43:24.104Z,101160.41
2023-05-04T14:45:53.311Z,101160.13
2023-05-04T14:48:24.335Z,101161.56
2023-05-04T14:50:54.988Z,101152.13
2023-05-04T14:53:24.530Z,101160.44
2023-05-04T14:55:53.491Z,101147.38
2023-05-04T14:58:22.200Z,101150.63
2023-05-04T15:00:51.290Z,101147.59
2023-05-04T15:03:20.061Z,101150.00
2023-05-04T15:05:49.078Z,101146.94
2023-05-04T15:08:19.201Z,101141.03
2023-05-04T15:10:48.249Z,101140.75
2023-05-04T15:13:17.944Z,101143.00
2023-05-04T15:15:46.943Z,101140.19
2023-05-04T15:18:15.970Z,101139.38
2023-05-04T15:20:45.232Z,101134.44
2023-05-04T15:23:13.951Z,101134.03
2023-05-04T15:25:44.668Z,101127.28
2023-05-04T15:28:13.546Z,101128.97
2023-05-04T15:30:43.503Z,101127.72
2023-05-04T15:33:12.330Z,101121.69
2023-05-04T15:35:41.459Z,101112.56
2023-05-04T15:38:10.169Z,101116.63
2023-05-04T15:40:39.254Z,101106.41
2023-05-04T15:43:09.300Z,101101.38
2023-05-04T15:45:38.294Z,101108.66
2023-05-04T15:48:07.337Z,101110.75
2023-05-04T15:50:36.279Z,101099.97
2023-05-04T15:53:05.077Z,101105.03
2023-05-04T15:55:34.595Z,101093.50
2023-05-04T15:58:03.306Z,101099.94
2023-05-04T16:00:34.291Z,101097.84
2023-05-04T16:03:03.169Z,101089.41
2023-05-04T16:05:32.372Z,101095.56
2023-05-04T16:08:01.192Z,101094.00
2023-05-04T16:10:30.390Z,101095.41
2023-05-04T16:13:04.006Z,101096.13
2023-05-04T16:15:34.660Z,101097.81
2023-05-04T16:18:03.504Z,101094.75
2023-05-04T16:20:32.532Z,101092.22
2023-05-04T16:23:01.339Z,101088.84
2023-05-04T16:25:30.296Z,101089.13
2023-05-04T16:27:59.085Z,101096.16
2023-05-04T16:30:32.719Z,101085.78
2023-05-04T16:33:03.903Z,101084.41
2023-05-04T16:35:33.290Z,101087.75
2023-05-04T16:38:02.408Z,101082.97
2023-05-04T16:40:32.512Z,101081.31
2023-05-04T16:43:01.534Z,101080.31
2023-05-04T16:45:31.880Z,101080.88
2023-05-04T16:48:02.058Z,101078.06
2023-05-04T16:50:31.449Z,101072.44
2023-05-04T16:53:00.593Z,101071.72
2023-05-04T16:55:29.583Z,101076.88
2023-05-04T16:57:59.304Z,101073.78
2023-05-04T17:00:29.948Z,101074.31
2023-05-04T17:02:58.675Z,101075.84
2023-05-04T17:05:29.213Z,101069.66
2023-05-04T17:07:57.890Z,101069.75
2023-05-04T17:10:26.923Z,101064.53
2023-05-04T17:12:56.351Z,101072.47
2023-05-04T17:15:25.926Z,101073.41
2023-05-04T17:17:56.198Z,101074.44
2023-05-04T17:20:28.767Z,101072.94
2023-05-04T17:22:59.493Z,101079.41
2023-05-04T17:25:28.721Z,101089.38
2023-05-04T17:27:57.385Z,101074.94
2023-05-04T17:30:27.068Z,101073.66
2023-05-04T17:32:57.440Z,101070.66
2023-05-04T17:35:26.984Z,101073.81
2023-05-04T17:37:58.562Z,101073.59
2023-05-04T17:40:29.646Z,101074.38
2023-05-04T17:42:58.555Z,101078.50
2023-05-04T17:45:27.626Z,101076.69
2023-05-04T17:47:57.280Z,101074.06
2023-05-04T17:50:26.798Z,101076.72
2023-05-04T17:52:56.577Z,101079.28
2023-05-04T17:55:25.830Z,101080.00
2023-05-04T17:57:56.140Z,101078.69
2023-05-04T18:00:25.397Z,101077.00
2023-05-04T18:02:54.169Z,101079.53
2023-05-04T18:05:23.255Z,101083.03
2023-05-04T18:07:52.013Z,101085.66
2023-05-04T18:10:21.005Z,101092.25
2023-05-04T18:12:49.655Z,101092.94
2023-05-04T18:15:20.319Z,101090.75
2023-05-04T18:17:50.710Z,101092.16
2023-05-04T18:20:19.747Z,101101.66
2023-05-04T18:22:48.623Z,101108.13
2023-05-04T18:25:17.536Z,101105.09
2023-05-04T18:27:46.214Z,101107.22
2023-05-04T18:30:15.645Z,101115.66
2023-05-04T18:32:45.738Z,101118.50
2023-05-04T18:35:14.737Z,101109.44
2023-05-04T18:37:43.433Z,101120.56
2023-05-04T18:40:13.688Z,101127.19
2023-05-04T18:42:42.384Z,101122.41
2023-05-04T18:45:12.900Z,101131.66
2023-05-04T18:47:41.590Z,101133.06
2023-05-04T18:50:12.532Z,101135.28
2023-05-04T18:52:41.223Z,101133.31
2023-05-04T18:55:11.164Z,101131.94
2023-05-04T18:57:39.934Z,101133.19
2023-05-04T19:00:11.695Z,101128.75
2023-05-04T19:02:40.498Z,101132.03
2023-05-04T19:05:12.951Z,101137.13
2023-05-04T19:07:43.080Z,101128.88
2023-05-04T19:10:12.648Z,101135.44
2023-05-04T19:12:41.346Z,101134.78
2023-05-04T19:15:11.021Z,101138.47
2023-05-04T19:17:39.739Z,101139.66
2023-05-04T19:20:11.369Z,101139.97
2023-05-04T19:22:40.147Z,101139.22
2023-05-04T19:25:12.255Z,101137.81
2023-05-04T19:27:48.043Z,101144.28
2023-05-04T19:30:18.590Z,101143.34
2023-05-04T19:32:47.355Z,101152.72
2023-05-04T19:35:18.449Z,101159.94
2023-05-04T19:37:47.845Z,101154.94
2023-05-04T19:40:16.858Z,101151.47
2023-05-04T19:42:46.393Z,101148.91
2023-05-04T19:45:15.979Z,101153.91
2023-05-04T19:47:45.517Z,101144.28
2023-05-04T19:50:16.365Z,101152.59
2023-05-04T19:52:46.444Z,101148.03
2023-05-04T19:55:16.528Z,101143.53
2023-05-04T19:57:45.356Z,101143.44
2023-05-04T20:00:17.160Z,101142.66
2023-05-04T20:02:46.510Z,101149.75
2023-05-04T20:05:15.718Z,101146.38
2023-05-04T20:07:45.758Z,101145.31
2023-05-04T20:10:14.736Z,101145.00
2023-05-04T20:12:43.516Z,101148.38
2023-05-04T20:15:12.717Z,101147.63
2023-05-04T20:17:41.558Z,101143.84
2023-05-04T20:20:11.787Z,101149.94
2023-05-04T20:22:40.445Z,101142.03
2023-05-04T20:25:11.725Z,101152.50
2023-05-04T20:27:40.656Z,101145.22
2023-05-04T20:30:10.621Z,101140.69
2023-05-04T20:32:39.396Z,101143.97
2023-05-04T20:35:09.451Z,101149.56
2023-05-04T20:37:38.362Z,101149.56
2023-05-04T20:40:11.131Z,101147.75
2023-05-04T20:42:39.929Z,101152.19
2023-05-04T20:45:10.094Z,101149.47
2023-05-04T20:47:38.809Z,101147.66
2023-05-04T20:50:10.291Z,101148.63
2023-05-04T20:52:39.519Z,101135.41
2023-05-04T20:55:11.263Z,101139.81
2023-05-04T20:57:40.045Z,101147.94
2023-05-04T21:00:11.388Z,101142.91
2023-05-04T21:02:40.211Z,101145.75
2023-05-04T21:05:09.802Z,101140.84
2023-05-04T21:07:38.468Z,101146.13
2023-05-04T21:10:10.865Z,101150.88
2023-05-04T21:12:39.627Z,101139.66
2023-05-04T21:15:10.258Z,101143.56
2023-05-04T21:17:39.002Z,101144.81
2023-05-04T21:20:09.571Z,101145.22
2023-05-04T21:22:38.600Z,101151.75
2023-05-04T21:25:08.187Z,101151.19
2023-05-04T21:27:38.251Z,101144.28
2023-05-04T21:30:09.936Z,101145.22
2023-05-04T21:32:38.894Z,101143.75
2023-05-04T21:35:09.021Z,101142.91
2023-05-04T21:37:37.794Z,101136.09
2023-05-04T21:40:09.172Z,101145.94
2023-05-04T21:42:39.475Z,101137.25
2023-05-04T21:45:09.714Z,101135.88
2023-05-04T21:47:38.386Z,101138.69
2023-05-04T21:50:08.947Z,101138.91
2023-05-04T21:52:37.854Z,101132.97
2023-05-04T21:55:08.070Z,101131.44
2023-05-04T21:57:38.082Z,101126.31
2023-05-04T22:00:12.384Z,101130.91
2023-05-04T22:02:41.156Z,101134.97
2023-05-04T22:05:11.559Z,101121.22
2023-05-04T22:07:40.303Z,101127.47
2023-05-04T22:10:11.298Z,101124.06
2023-05-04T22:12:41.414Z,101124.34
2023-05-04T22:15:12.859Z,101125.19
2023-05-04T22:17:42.000Z,101127.91
2023-05-04T22:20:12.916Z,101130.56
2023-05-04T22:22:41.579Z,101124.53
2023-05-04T22:25:10.976Z,101135.94
2023-05-04T22:27:41.092Z,101125.28
2023-05-04T22:30:11.343Z,101128.97
2023-05-04T22:32:40.090Z,101128.09
2023-05-04T22:35:10.277Z,101130.97
2023-05-04T22:37:38.917Z,101128.31
2023-05-04T22:40:10.142Z,101125.97
2023-05-04T22:42:40.432Z,101117.31
2023-05-04T22:45:11.421Z,101122.75
2023-05-04T22:47:40.873Z,101118.50
2023-05-04T22:50:11.427Z,101118.59
2023-05-04T22:52:40.779Z,101110.69
2023-05-04T22:55:10.594Z,101120.41
2023-05-04T22:57:40.907Z,101124.09
2023-05-04T23:00:12.154Z,101119.56
2023-05-04T23:02:41.300Z,101113.53
2023-05-04T23:05:10.872Z,101112.97
2023-05-04T23:07:39.756Z,101120.50
2023-05-04T23:10:10.505Z,101117.41
2023-05-04T23:12:40.874Z,101122.28
2023-05-04T23:15:11.164Z,101120.88
2023-05-04T23:17:40.655Z,101119.56
2023-05-04T23:20:11.469Z,101118.03
2023-05-04T23:22:40.281Z,101116.44
2023-05-04T23:25:10.175Z,101113.03
2023-05-04T23:27:40.694Z,101113.13
2023-05-04T23:30:10.873Z,101107.19
2023-05-04T23:32:39.806Z,101117.44
2023-05-04T23:35:10.156Z,101122.84
2023-05-04T23:37:39.040Z,101120.44
2023-05-04T23:40:10.498Z,101119.84
2023-05-04T23:42:40.849Z,101114.75
2023-05-04T23:45:11.716Z,101113.22
2023-05-04T23:47:40.697Z,101114.28
2023-05-04T23:50:11.647Z,101117.91
2023-05-04T23:52:40.490Z,101122.44
2023-05-04T23:55:10.578Z,101114.78
2023-05-04T23:57:40.594Z,101108.94
